createdAt,value
2018-12-18T00:02:16.518Z,99.18
2018-12-18T00:04:47.559Z,99.65
2018-12-18T00:07:18.496Z,99.56
2018-12-18T00:09:47.792Z,99.68
2018-12-18T00:12:17.911Z,99.46
2018-12-18T00:14:47.343Z,99.91
2018-12-18T00:17:16.616Z,99.54
2018-12-18T00:19:45.894Z,99.56
2018-12-18T00:22:15.467Z,99.54
2018-12-18T00:24:45.383Z,99.26
2018-12-18T00:27:14.872Z,99.47
2018-12-18T00:29:44.434Z,99.51
2018-12-18T00:32:13.764Z,99.38
2018-12-18T00:34:43.039Z,99.94
2018-12-18T00:37:12.894Z,99.81
2018-12-18T00:39:42.477Z,99.41
2018-12-18T00:42:12.854Z,99.58
2018-12-18T00:44:42.140Z,99.65
2018-12-18T00:47:12.792Z,99.54
2018-12-18T00:49:42.061Z,99.70
2018-12-18T00:52:13.303Z,100.00
2018-12-18T00:54:42.817Z,99.90
2018-12-18T00:57:14.444Z,100.00
2018-12-18T00:59:43.732Z,99.96
2018-12-18T01:02:13.920Z,99.94
2018-12-18T01:04:44.208Z,99.84
2018-12-18T01:07:14.814Z,99.56
2018-12-18T01:09:45.220Z,99.85
2018-12-18T01:12:14.824Z,99.88
2018-12-18T01:14:44.108Z,99.57
2018-12-18T01:17:13.672Z,99.51
2018-12-18T01:19:42.996Z,99.63
2018-12-18T01:22:13.035Z,99.88
2018-12-18T01:24:42.907Z,99.35
2018-12-18T01:27:12.978Z,98.90
2018-12-18T01:29:42.584Z,98.97
2018-12-18T01:32:12.143Z,98.85
2018-12-18T01:34:41.520Z,98.56
2018-12-18T01:37:10.800Z,98.57
2018-12-18T01:39:40.079Z,98.31
2018-12-18T01:42:09.360Z,98.64
2018-12-18T01:44:38.642Z,98.42
2018-12-18T01:47:07.927Z,98.38
2018-12-18T01:49:37.535Z,98.16
2018-12-18T01:54:37.187Z,98.04
2018-12-18T01:57:06.471Z,98.22
2018-12-18T01:59:35.841Z,98.21
2018-12-18T02:02:05.136Z,97.97
2018-12-18T02:04:34.419Z,97.80
2018-12-18T02:07:04.184Z,98.12
2018-12-18T02:09:33.953Z,97.65
2018-12-18T02:12:03.932Z,97.69
2018-12-18T02:14:33.515Z,97.78
2018-12-18T02:17:03.094Z,97.82
2018-12-18T02:19:32.386Z,97.73
2018-12-18T02:22:01.676Z,97.75
2018-12-18T02:24:31.008Z,97.76
2018-12-18T02:27:01.352Z,97.48
2018-12-18T02:29:30.890Z,97.96
2018-12-18T02:32:00.175Z,97.97
2018-12-18T02:34:30.765Z,98.10
2018-12-18T02:37:00.601Z,98.04
2018-12-18T02:39:30.189Z,97.67
2018-12-18T02:41:59.816Z,98.11
2018-12-18T02:44:29.120Z,98.07
2018-12-18T02:46:58.704Z,98.18
2018-12-18T02:49:28.335Z,97.87
2018-12-18T02:51:57.769Z,98.29
2018-12-18T02:54:27.304Z,98.50
2018-12-18T02:56:56.789Z,98.41
2018-12-18T02:59:26.133Z,98.79
2018-12-18T03:01:55.911Z,98.92
2018-12-18T03:04:25.224Z,98.51
2018-12-18T03:06:54.513Z,98.74
2018-12-18T03:09:24.073Z,98.61
2018-12-18T03:11:53.346Z,98.24
2018-12-18T03:14:22.947Z,98.43
2018-12-18T03:16:52.458Z,98.22
2018-12-18T03:19:22.064Z,98.20
2018-12-18T03:21:51.328Z,97.98
2018-12-18T03:24:21.124Z,98.31
2018-12-18T03:26:50.408Z,98.35
2018-12-18T03:29:19.996Z,98.96
2018-12-18T03:31:51.426Z,98.20
2018-12-18T03:34:28.140Z,98.38
2018-12-18T03:36:52.371Z,98.30
2018-12-18T03:39:21.987Z,98.22
2018-12-18T03:41:51.282Z,98.10
2018-12-18T03:44:20.870Z,98.02
2018-12-18T03:46:50.159Z,98.25
2018-12-18T03:49:19.496Z,98.72
2018-12-18T03:51:49.048Z,98.42
2018-12-18T03:54:18.998Z,98.77
2018-12-18T03:56:48.512Z,98.68
2018-12-18T03:59:18.100Z,98.96
2018-12-18T04:01:47.377Z,98.45
2018-12-18T04:04:16.980Z,98.74
2018-12-18T04:06:46.397Z,98.60
2018-12-18T04:09:15.707Z,98.57
2018-12-18T04:11:50.364Z,98.83
2018-12-18T04:14:19.662Z,98.87
2018-12-18T04:16:49.135Z,98.58
2018-12-18T04:19:18.730Z,98.93
2018-12-18T04:21:48.107Z,98.62
2018-12-18T04:24:17.421Z,98.71
2018-12-18T04:26:47.211Z,98.67
2018-12-18T04:29:16.795Z,98.54
2018-12-18T04:31:46.076Z,98.82
2018-12-18T04:34:15.380Z,98.80
2018-12-18T04:36:44.661Z,98.76
2018-12-18T04:39:14.235Z,98.60
2018-12-18T04:41:43.544Z,98.50
2018-12-18T04:44:13.471Z,98.67
2018-12-18T04:46:43.017Z,98.56
2018-12-18T04:49:13.411Z,98.59
2018-12-18T04:51:43.519Z,98.24
2018-12-18T04:54:14.961Z,98.79
2018-12-18T04:56:44.249Z,98.48
2018-12-18T04:59:15.373Z,98.77
2018-12-18T05:01:44.959Z,98.59
2018-12-18T05:04:14.695Z,98.50
2018-12-18T05:06:45.025Z,98.62
2018-12-18T05:09:14.777Z,98.51
2018-12-18T05:11:44.395Z,98.75
2018-12-18T05:14:13.671Z,98.72
2018-12-18T05:16:46.368Z,98.91
2018-12-18T05:19:16.684Z,98.33
2018-12-18T05:21:45.999Z,98.81
2018-12-18T05:24:15.276Z,98.92
2018-12-18T05:26:44.587Z,98.91
2018-12-18T05:29:13.884Z,98.71
2018-12-18T05:31:43.186Z,98.94
2018-12-18T05:34:13.683Z,98.96
2018-12-18T05:36:43.151Z,98.94
2018-12-18T05:39:13.607Z,98.85
2018-12-18T05:41:43.204Z,98.80
2018-12-18T05:44:14.408Z,98.52
2018-12-18T05:46:43.672Z,98.69
2018-12-18T05:49:13.619Z,98.76
2018-12-18T05:51:42.916Z,98.45
2018-12-18T05:54:12.572Z,98.25
2018-12-18T05:56:42.163Z,98.08
2018-12-18T05:59:11.466Z,97.50
2018-12-18T06:01:40.769Z,97.46
2018-12-18T06:04:10.320Z,97.19
2018-12-18T06:06:40.007Z,97.65
2018-12-18T06:09:09.391Z,97.08
2018-12-18T06:11:38.698Z,97.52
2018-12-18T06:14:07.967Z,97.67
2018-12-18T06:16:37.263Z,97.45
2018-12-18T06:19:06.548Z,97.20
2018-12-18T06:21:37.253Z,97.18
2018-12-18T06:24:12.940Z,97.30
2018-12-18T06:26:42.359Z,97.06
2018-12-18T06:29:11.696Z,97.00
2018-12-18T06:31:41.000Z,96.81
2018-12-18T06:34:10.557Z,97.02
2018-12-18T06:36:39.851Z,96.80
2018-12-18T06:39:09.145Z,96.48
2018-12-18T06:41:38.435Z,96.62
2018-12-18T06:44:07.867Z,96.54
2018-12-18T06:46:37.160Z,96.30
2018-12-18T06:49:06.564Z,96.25
2018-12-18T06:51:35.859Z,96.03
2018-12-18T06:54:05.926Z,96.02
2018-12-18T06:56:36.772Z,95.46
2018-12-18T06:59:06.136Z,95.64
2018-12-18T07:01:35.425Z,95.76
2018-12-18T07:04:04.713Z,95.64
2018-12-18T07:06:34.254Z,95.81
2018-12-18T07:09:05.213Z,95.43
2018-12-18T07:11:35.612Z,95.21
2018-12-18T07:14:05.741Z,94.98
2018-12-18T07:16:35.351Z,94.52
2018-12-18T07:19:04.641Z,93.98
2018-12-18T07:21:34.220Z,94.32
2018-12-18T07:24:03.564Z,94.08
2018-12-18T07:26:32.843Z,93.69
2018-12-18T07:29:02.137Z,93.99
2018-12-18T07:31:31.442Z,93.94
2018-12-18T07:34:00.731Z,93.82
2018-12-18T07:36:30.311Z,93.85
2018-12-18T07:38:59.967Z,94.05
2018-12-18T07:41:29.664Z,94.02
2018-12-18T07:47:02.247Z,93.97
2018-12-18T07:49:32.492Z,93.83
2018-12-18T07:52:01.760Z,93.93
2018-12-18T07:54:31.045Z,93.89
2018-12-18T07:57:00.568Z,93.62
2018-12-18T07:59:30.148Z,93.57
2018-12-18T08:01:59.471Z,93.33
2018-12-18T08:04:29.015Z,92.81
2018-12-18T08:06:58.592Z,92.73
2018-12-18T08:09:27.872Z,92.82
2018-12-18T08:11:57.237Z,92.93
2018-12-18T08:14:26.788Z,93.11
2018-12-18T08:16:57.684Z,92.91
2018-12-18T08:19:26.979Z,93.30
2018-12-18T08:21:56.597Z,93.07
2018-12-18T08:24:26.178Z,93.01
2018-12-18T08:26:55.683Z,93.25
2018-12-18T08:29:25.115Z,92.88
2018-12-18T08:31:54.698Z,92.55
2018-12-18T08:34:23.993Z,92.81
2018-12-18T08:36:53.575Z,92.23
2018-12-18T08:39:24.092Z,92.24
2018-12-18T08:41:53.585Z,92.66
2018-12-18T08:44:23.175Z,92.38
2018-12-18T08:46:52.611Z,93.41
2018-12-18T08:49:21.895Z,93.12
2018-12-18T08:51:51.184Z,92.65
2018-12-18T08:54:20.763Z,92.54
2018-12-18T08:56:50.049Z,92.42
2018-12-18T08:59:20.653Z,91.93
2018-12-18T09:01:49.937Z,91.68
2018-12-18T09:04:19.553Z,91.79
2018-12-18T09:06:48.844Z,91.84
2018-12-18T09:09:18.127Z,91.67
2018-12-18T09:11:47.656Z,91.81
2018-12-18T09:14:17.223Z,91.74
2018-12-18T09:16:52.168Z,91.38
2018-12-18T09:19:21.474Z,91.10
2018-12-18T09:21:50.756Z,91.24
2018-12-18T09:24:20.293Z,90.93
2018-12-18T09:26:49.619Z,91.38
2018-12-18T09:29:19.217Z,90.94
2018-12-18T09:31:49.611Z,91.36
2018-12-18T09:34:19.035Z,91.56
2018-12-18T09:36:48.580Z,91.01
2018-12-18T09:39:19.572Z,90.87
2018-12-18T09:41:50.759Z,90.72
2018-12-18T09:44:20.412Z,90.51
2018-12-18T09:46:50.949Z,90.60
2018-12-18T09:49:21.420Z,90.65
2018-12-18T09:51:51.032Z,90.73
2018-12-18T09:54:20.328Z,89.69
2018-12-18T09:56:50.625Z,89.54
2018-12-18T09:59:20.112Z,88.91
2018-12-18T10:01:50.399Z,88.77
2018-12-18T10:04:20.145Z,88.45
2018-12-18T10:06:49.716Z,87.74
2018-12-18T10:09:19.007Z,87.16
2018-12-18T10:11:48.811Z,85.39
2018-12-18T10:14:18.403Z,82.43
2018-12-18T10:16:48.587Z,81.47
2018-12-18T10:19:17.872Z,78.99
2018-12-18T10:21:47.163Z,77.04
2018-12-18T10:24:16.664Z,77.31
2018-12-18T10:26:46.357Z,77.17
2018-12-18T10:29:16.222Z,77.65
2018-12-18T10:31:45.492Z,76.89
2018-12-18T10:34:15.119Z,77.02
2018-12-18T10:36:44.703Z,76.65
2018-12-18T10:39:14.342Z,76.04
2018-12-18T10:41:44.091Z,75.16
2018-12-18T10:44:14.219Z,73.90
2018-12-18T10:46:43.928Z,73.40
2018-12-18T10:49:14.236Z,73.68
2018-12-18T10:51:43.529Z,73.90
2018-12-18T10:54:14.089Z,73.83
2018-12-18T10:56:43.372Z,74.57
2018-12-18T10:59:14.340Z,74.42
2018-12-18T11:01:47.875Z,74.86
2018-12-18T11:04:17.459Z,74.52
2018-12-18T11:06:46.900Z,74.75
2018-12-18T11:09:16.266Z,73.54
2018-12-18T11:11:46.431Z,74.06
2018-12-18T11:14:15.976Z,74.13
2018-12-18T11:16:45.240Z,73.64
2018-12-18T11:19:15.383Z,74.05
2018-12-18T11:21:44.663Z,74.09
2018-12-18T11:24:15.268Z,73.09
2018-12-18T11:26:44.535Z,72.37
2018-12-18T11:29:14.483Z,73.82
2018-12-18T11:31:43.988Z,74.05
2018-12-18T11:34:14.269Z,73.93
2018-12-18T11:36:44.075Z,74.45
2018-12-18T11:39:14.973Z,73.71
2018-12-18T11:41:44.260Z,74.56
2018-12-18T11:44:14.364Z,72.81
2018-12-18T11:46:43.992Z,73.10
2018-12-18T11:49:14.452Z,73.31
2018-12-18T11:51:43.735Z,73.35
2018-12-18T11:54:13.011Z,72.61
2018-12-18T11:56:42.301Z,72.56
2018-12-18T11:59:12.068Z,72.15
2018-12-18T12:01:41.381Z,72.78
2018-12-18T12:04:10.927Z,72.23
2018-12-18T12:06:40.616Z,71.96
2018-12-18T12:09:10.175Z,71.52
2018-12-18T12:11:40.366Z,71.18
2018-12-18T12:14:10.228Z,71.29
2018-12-18T12:16:39.519Z,72.26
2018-12-18T12:19:08.792Z,71.89
2018-12-18T12:21:38.330Z,71.50
2018-12-18T12:24:07.612Z,71.09
2018-12-18T12:26:36.904Z,70.96
2018-12-18T12:29:06.467Z,70.69
2018-12-18T12:31:36.064Z,71.51
2018-12-18T12:34:05.452Z,71.36
2018-12-18T12:36:34.728Z,71.98
2018-12-18T12:39:05.836Z,72.95
2018-12-18T12:41:36.323Z,72.47
2018-12-18T12:44:05.630Z,73.36
2018-12-18T12:46:35.628Z,73.88
2018-12-18T12:49:06.605Z,74.62
2018-12-18T12:51:36.798Z,74.54
2018-12-18T12:54:06.562Z,74.85
2018-12-18T12:56:35.855Z,75.24
2018-12-18T12:59:05.448Z,76.30
2018-12-18T13:01:41.935Z,76.89
2018-12-18T13:04:06.720Z,76.36
2018-12-18T13:06:36.503Z,76.32
2018-12-18T13:09:07.744Z,77.64
2018-12-18T13:11:38.912Z,77.97
2018-12-18T13:14:08.234Z,78.05
2018-12-18T13:16:37.528Z,78.39
2018-12-18T13:19:06.808Z,78.49
2018-12-18T13:21:37.269Z,78.67
2018-12-18T13:24:06.536Z,79.17
2018-12-18T13:26:35.811Z,79.37
2018-12-18T13:29:05.384Z,79.81
2018-12-18T13:31:34.695Z,79.63
2018-12-18T13:34:03.992Z,79.28
2018-12-18T13:36:33.731Z,79.96
2018-12-18T13:39:03.524Z,80.75
2018-12-18T13:41:32.787Z,80.41
2018-12-18T13:44:03.016Z,80.69
2018-12-18T13:46:32.879Z,80.14
2018-12-18T13:49:02.788Z,80.58
2018-12-18T13:51:32.587Z,80.99
2018-12-18T13:54:02.400Z,80.60
2018-12-18T13:56:32.127Z,80.64
2018-12-18T13:59:01.508Z,80.38
2018-12-18T14:01:30.944Z,80.39
2018-12-18T14:04:00.656Z,80.95
2018-12-18T14:06:29.921Z,81.38
2018-12-18T14:09:00.278Z,81.59
2018-12-18T14:11:29.791Z,81.86
2018-12-18T14:13:59.083Z,81.86
2018-12-18T14:16:28.648Z,82.24
2018-12-18T14:18:57.938Z,82.47
2018-12-18T14:21:27.789Z,82.40
2018-12-18T14:23:57.076Z,82.18
2018-12-18T14:26:26.670Z,82.59
2018-12-18T14:28:55.935Z,82.88
2018-12-18T14:31:25.516Z,82.40
2018-12-18T14:33:55.028Z,82.92
2018-12-18T14:36:24.291Z,83.04
2018-12-18T14:38:54.575Z,82.89
2018-12-18T14:41:24.146Z,83.24
2018-12-18T14:43:53.739Z,82.90
2018-12-18T14:46:23.011Z,83.53
2018-12-18T14:48:52.583Z,84.10
2018-12-18T14:51:21.910Z,83.99
2018-12-18T14:53:52.680Z,84.41
2018-12-18T14:56:22.223Z,84.48
2018-12-18T14:58:51.800Z,84.99
2018-12-18T15:01:21.077Z,85.10
2018-12-18T15:03:50.848Z,85.36
2018-12-18T15:09:04.160Z,85.22
2018-12-18T15:11:33.833Z,85.46
2018-12-18T15:14:03.511Z,85.73
2018-12-18T15:16:33.583Z,85.83
2018-12-18T15:19:02.863Z,85.98
2018-12-18T15:21:32.451Z,86.45
2018-12-18T15:24:05.688Z,86.25
2018-12-18T15:26:34.968Z,86.43
2018-12-18T15:29:04.253Z,86.53
2018-12-18T15:31:33.835Z,86.65
2018-12-18T15:34:03.772Z,86.58
2018-12-18T15:36:33.351Z,86.52
2018-12-18T15:39:02.792Z,86.62
2018-12-18T15:41:32.957Z,86.39
2018-12-18T15:44:03.024Z,86.49
2018-12-18T15:46:32.304Z,86.65
2018-12-18T15:49:01.888Z,86.53
2018-12-18T15:51:31.176Z,87.05
2018-12-18T15:54:00.790Z,86.89
2018-12-18T15:56:30.250Z,86.89
2018-12-18T15:59:00.523Z,87.17
2018-12-18T16:01:29.824Z,86.53
2018-12-18T16:04:00.147Z,86.91
2018-12-18T16:06:30.529Z,86.75
2018-12-18T16:08:59.812Z,87.05
2018-12-18T16:11:29.389Z,86.99
2018-12-18T16:13:58.676Z,86.81
2018-12-18T16:16:28.330Z,86.78
2018-12-18T16:18:57.760Z,86.76
2018-12-18T16:21:27.368Z,87.13
2018-12-18T16:23:56.949Z,87.04
2018-12-18T16:26:26.251Z,87.12
2018-12-18T16:28:55.593Z,87.25
2018-12-18T16:31:24.877Z,87.29
2018-12-18T16:33:54.156Z,87.25
2018-12-18T16:36:23.440Z,87.34
2018-12-18T16:38:52.920Z,86.97
2018-12-18T16:41:22.809Z,87.15
2018-12-18T16:43:52.563Z,87.02
2018-12-18T16:46:22.111Z,87.25
2018-12-18T16:48:52.168Z,87.53
2018-12-18T16:51:21.692Z,87.40
2018-12-18T16:53:51.225Z,87.20
2018-12-18T16:56:20.666Z,87.73
2018-12-18T16:58:50.109Z,87.60
2018-12-18T17:01:20.326Z,87.83
2018-12-18T17:03:49.948Z,87.32
2018-12-18T17:06:19.235Z,87.38
2018-12-18T17:08:49.056Z,87.60
2018-12-18T17:11:18.619Z,87.91
2018-12-18T17:13:47.959Z,87.16
2018-12-18T17:16:17.483Z,87.13
2018-12-18T17:18:47.020Z,87.18
2018-12-18T17:21:16.313Z,86.85
2018-12-18T17:23:45.943Z,87.11
2018-12-18T17:26:15.777Z,86.75
2018-12-18T17:28:46.010Z,86.64
2018-12-18T17:31:15.363Z,86.49
2018-12-18T17:33:44.649Z,86.43
2018-12-18T17:36:13.921Z,86.19
2018-12-18T17:38:43.384Z,85.95
2018-12-18T17:41:12.657Z,86.13
2018-12-18T17:43:42.248Z,86.44
2018-12-18T17:46:11.526Z,86.23
2018-12-18T17:48:42.959Z,86.30
2018-12-18T17:51:13.542Z,86.28
2018-12-18T17:53:43.576Z,86.44
2018-12-18T17:56:13.832Z,86.79
2018-12-18T17:58:43.416Z,86.52
2018-12-18T18:01:12.732Z,86.81
2018-12-18T18:03:43.277Z,86.91
2018-12-18T18:06:12.799Z,87.13
2018-12-18T18:08:42.396Z,86.75
2018-12-18T18:11:11.676Z,87.18
2018-12-18T18:13:42.107Z,86.91
2018-12-18T18:16:11.927Z,86.84
2018-12-18T18:18:41.851Z,87.33
2018-12-18T18:21:11.616Z,86.74
2018-12-18T18:23:41.175Z,87.23
2018-12-18T18:26:11.923Z,87.14
2018-12-18T18:28:41.280Z,86.74
2018-12-18T18:31:10.543Z,86.47
2018-12-18T18:33:39.816Z,86.58
2018-12-18T18:36:09.175Z,86.35
2018-12-18T18:38:38.452Z,86.27
2018-12-18T18:41:07.743Z,86.29
2018-12-18T18:43:37.547Z,86.28
2018-12-18T18:46:06.811Z,86.37
2018-12-18T18:48:36.200Z,86.23
2018-12-18T18:51:05.480Z,86.09
2018-12-18T18:53:34.760Z,86.34
2018-12-18T18:56:04.539Z,86.18
2018-12-18T18:58:34.900Z,86.57
2018-12-18T19:01:04.444Z,86.05
2018-12-18T19:03:33.731Z,86.34
2018-12-18T19:06:03.339Z,86.28
2018-12-18T19:08:32.792Z,85.93
2018-12-18T19:11:02.116Z,85.77
2018-12-18T19:13:31.506Z,86.16
2018-12-18T19:16:01.169Z,85.76
2018-12-18T19:18:30.659Z,85.49
2018-12-18T19:20:59.925Z,85.89
2018-12-18T19:23:29.972Z,85.89
2018-12-18T19:25:59.497Z,85.90
2018-12-18T19:28:28.939Z,85.97
2018-12-18T19:30:58.312Z,85.96
2018-12-18T19:33:27.575Z,86.03
2018-12-18T19:35:57.420Z,85.78
2018-12-18T19:38:26.871Z,85.73
2018-12-18T19:40:56.838Z,85.23
2018-12-18T19:43:27.269Z,85.69
2018-12-18T19:45:57.875Z,85.61
2018-12-18T19:48:28.069Z,85.38
2018-12-18T19:50:57.453Z,85.91
2018-12-18T19:53:29.874Z,86.06
2018-12-18T19:55:59.345Z,85.88
2018-12-18T19:58:28.651Z,85.95
2018-12-18T20:00:57.931Z,86.07
2018-12-18T20:03:27.698Z,85.80
2018-12-18T20:05:57.259Z,85.58
2018-12-18T20:08:26.574Z,85.98
2018-12-18T20:10:55.913Z,85.69
2018-12-18T20:13:26.511Z,86.31
2018-12-18T20:15:56.095Z,85.92
2018-12-18T20:18:25.715Z,86.12
2018-12-18T20:20:55.068Z,85.88
2018-12-18T20:23:24.624Z,85.70
2018-12-18T20:25:54.023Z,85.59
2018-12-18T20:28:23.286Z,86.03
2018-12-18T20:30:52.550Z,85.92
2018-12-18T20:33:22.002Z,85.66
2018-12-18T20:35:51.491Z,85.39
2018-12-18T20:38:20.760Z,85.52
2018-12-18T20:40:50.336Z,85.58
2018-12-18T20:43:19.655Z,85.61
2018-12-18T20:45:48.967Z,85.27
2018-12-18T20:48:18.876Z,85.64
2018-12-18T20:50:48.492Z,85.29
2018-12-18T20:53:17.798Z,85.12
2018-12-18T20:55:47.111Z,85.09
2018-12-18T20:58:16.665Z,85.13
2018-12-18T21:00:46.500Z,85.07
2018-12-18T21:03:16.008Z,85.42
2018-12-18T21:05:45.846Z,85.19
2018-12-18T21:08:15.963Z,85.59
2018-12-18T21:10:46.203Z,85.22
2018-12-18T21:13:20.856Z,85.17
2018-12-18T21:15:50.456Z,85.12
2018-12-18T21:18:19.863Z,84.79
2018-12-18T21:20:49.814Z,85.10
2018-12-18T21:23:19.082Z,84.86
2018-12-18T21:25:48.653Z,84.70
2018-12-18T21:28:18.012Z,84.63
2018-12-18T21:30:48.176Z,84.75
2018-12-18T21:33:18.544Z,84.62
2018-12-18T21:35:48.251Z,84.40
2018-12-18T21:38:17.804Z,84.91
2018-12-18T21:40:47.123Z,84.65
2018-12-18T21:43:17.496Z,84.42
2018-12-18T21:45:46.858Z,84.36
2018-12-18T21:48:16.156Z,84.00
2018-12-18T21:50:45.513Z,84.09
2018-12-18T21:53:14.803Z,84.39
2018-12-18T21:55:44.209Z,84.69
2018-12-18T21:58:13.780Z,84.46
2018-12-18T22:00:43.068Z,84.24
2018-12-18T22:03:12.370Z,83.96
2018-12-18T22:05:41.796Z,84.27
2018-12-18T22:08:11.156Z,84.01
2018-12-18T22:10:40.955Z,84.16
2018-12-18T22:13:10.223Z,84.29
2018-12-18T22:15:39.818Z,83.77
2018-12-18T22:18:09.352Z,84.26
2018-12-18T22:20:39.001Z,84.06
2018-12-18T22:23:08.544Z,84.40
2018-12-18T22:25:38.112Z,84.51
2018-12-18T22:28:07.493Z,83.96
2018-12-18T22:30:36.992Z,83.99
2018-12-18T22:33:06.311Z,84.13
2018-12-18T22:35:35.585Z,83.72
2018-12-18T22:38:04.848Z,83.50
2018-12-18T22:40:34.428Z,83.25
2018-12-18T22:43:03.980Z,83.33
2018-12-18T22:45:33.272Z,83.29
2018-12-18T22:48:02.544Z,83.27
2018-12-18T22:50:32.219Z,83.27
2018-12-18T22:53:01.537Z,83.29
2018-12-18T22:55:31.148Z,83.21
2018-12-18T22:58:00.399Z,83.11
2018-12-18T23:00:35.616Z,83.08
2018-12-18T23:03:05.151Z,82.81
2018-12-18T23:05:34.461Z,83.14
2018-12-18T23:08:04.020Z,83.08
2018-12-18T23:10:33.302Z,83.42
2018-12-18T23:13:02.565Z,83.60
2018-12-18T23:15:32.130Z,84.01
2018-12-18T23:18:01.632Z,83.75
2018-12-18T23:20:31.283Z,83.60
2018-12-18T23:23:00.849Z,83.36
2018-12-18T23:25:30.254Z,83.46
2018-12-18T23:27:59.537Z,83.18
2018-12-18T23:30:29.205Z,82.86
2018-12-18T23:32:58.493Z,82.70
2018-12-18T23:35:28.055Z,82.61
2018-12-18T23:37:57.331Z,83.08
2018-12-18T23:40:26.884Z,82.51
2018-12-18T23:42:56.175Z,82.51
2018-12-18T23:45:25.488Z,82.52
2018-12-18T23:47:55.300Z,82.14
2018-12-18T23:50:24.683Z,82.34
2018-12-18T23:52:54.151Z,82.08
2018-12-18T23:55:23.545Z,81.88
2018-12-18T23:57:53.071Z,81.75
